createdAt,value
2017-11-06T00:02:33.794Z,41.17
2017-11-06T00:17:34.458Z,37.33
2017-11-06T00:32:33.665Z,39.67
2017-11-06T00:47:32.684Z,39.73
2017-11-06T01:02:35.145Z,39.50
2017-11-06T01:17:35.050Z,40.67
2017-11-06T01:32:35.990Z,36.40
2017-11-06T01:47:35.102Z,35.40
2017-11-06T02:02:37.020Z,36.73
2017-11-06T02:17:35.777Z,27.10
2017-11-06T02:32:34.421Z,31.23
2017-11-06T02:47:34.342Z,34.83
2017-11-06T03:02:35.179Z,31.80
2017-11-06T03:17:37.078Z,39.00
2017-11-06T03:32:34.977Z,33.43
2017-11-06T03:47:34.600Z,37.67
2017-11-06T04:02:36.595Z,43.70
2017-11-06T04:17:34.470Z,47.40
2017-11-06T04:32:34.340Z,52.77
2017-11-06T04:47:34.863Z,59.63
2017-11-06T05:02:34.795Z,62.57
2017-11-06T05:17:36.713Z,59.87
2017-11-06T05:32:34.681Z,46.57
2017-11-06T05:47:35.095Z,53.53
2017-11-06T06:02:39.355Z,50.67
2017-11-06T06:17:34.966Z,41.23
2017-11-06T06:32:34.883Z,35.73
2017-11-06T06:47:35.334Z,39.87
2017-11-06T07:02:35.339Z,29.70
2017-11-06T07:17:35.530Z,26.57
2017-11-06T07:32:35.044Z,23.80
2017-11-06T07:47:34.605Z,23.23
2017-11-06T08:02:34.426Z,21.10
2017-11-06T08:17:34.403Z,24.43
2017-11-06T08:32:35.808Z,23.60
2017-11-06T08:47:34.896Z,22.00
2017-11-06T09:02:34.807Z,23.80
2017-11-06T09:17:34.609Z,25.37
2017-11-06T09:32:36.576Z,21.20
2017-11-06T09:47:35.101Z,16.27
2017-11-06T10:02:34.989Z,17.83
2017-11-06T10:17:35.844Z,16.43
2017-11-06T10:32:34.824Z,15.60
2017-11-06T10:47:35.210Z,13.87
2017-11-06T11:02:39.148Z,13.93
2017-11-06T11:17:35.185Z,11.50
2017-11-06T11:32:34.993Z,14.93
2017-11-06T11:47:34.649Z,12.70
2017-11-06T12:02:34.372Z,13.37
2017-11-06T12:17:36.320Z,17.80
2017-11-06T12:32:35.225Z,13.07
2017-11-06T12:47:34.717Z,12.47
2017-11-06T13:02:34.646Z,11.90
2017-11-06T13:17:36.592Z,13.63
2017-11-06T13:32:34.415Z,11.23
2017-11-06T13:47:36.921Z,13.27
2017-11-06T14:02:35.183Z,15.40
2017-11-06T14:17:34.721Z,17.93
2017-11-06T14:32:34.628Z,21.73
2017-11-06T14:47:37.400Z,18.20
2017-11-06T15:02:35.024Z,18.13
2017-11-06T15:17:34.989Z,19.63
2017-11-06T15:32:34.876Z,42.93
2017-11-06T15:47:34.311Z,33.30
2017-11-06T16:02:38.257Z,31.90
2017-11-06T16:17:35.232Z,32.70
2017-11-06T16:32:35.088Z,35.20
2017-11-06T16:47:34.512Z,32.00
2017-11-06T17:02:34.477Z,38.53
2017-11-06T17:17:36.442Z,57.53
2017-11-06T17:32:36.441Z,76.80
2017-11-06T17:47:36.750Z,41.70
2017-11-06T18:02:37.182Z,37.97
2017-11-06T18:17:34.974Z,35.47
2017-11-06T18:32:37.565Z,32.63
2017-11-06T18:47:37.002Z,32.10
2017-11-06T19:02:35.598Z,25.80
2017-11-06T19:17:36.960Z,22.27
2017-11-06T19:32:38.077Z,23.60
2017-11-06T19:47:37.205Z,19.10
2017-11-06T20:02:34.385Z,22.40
2017-11-06T20:17:35.031Z,25.60
2017-11-06T20:32:35.108Z,40.37
2017-11-06T20:47:34.484Z,43.20
2017-11-06T21:02:36.241Z,43.23
2017-11-06T21:17:34.418Z,42.43
2017-11-06T21:32:34.885Z,57.20
2017-11-06T21:47:33.945Z,53.20
2017-11-06T22:02:34.544Z,48.70
2017-11-06T22:17:35.813Z,47.50
2017-11-06T22:32:34.469Z,47.83
2017-11-06T22:47:36.165Z,50.43
2017-11-06T23:02:34.114Z,42.43
2017-11-06T23:17:35.049Z,45.10
2017-11-06T23:32:36.063Z,42.63
2017-11-06T23:47:34.412Z,41.53
